Time;durP1;ratioP1;P1;durP2;ratioP2;P2;SDS_P1;SDS_P2;PMS_P1;PMS_P2;Temp;Humidity;BMP_temperature;BMP_pressure;BME280_temperature;BME280_humidity;BME280_pressure;Samples;Min_cycle;Max_cycle;Signal;HPM_P1;HPM_P2
2022/07/26 00:00:12;;;;;;;;;;;;;;;-140.72;100.00;52362.44;5066991;28;19916;-66
2022/07/26 00:02:37;;;;;;;;;;;;;;;-140.72;100.00;52334.03;5068825;28;19917;-67
2022/07/26 00:05:03;;;;;;;;;;;;;;;-140.72;100.00;52346.22;5054217;28;19943;-66
2022/07/26 00:07:28;;;;;;;;;;;;;;;-140.72;100.00;52348.25;5054234;28;19924;-66
2022/07/26 00:09:53;;;;;;;;;;;;;;;-140.72;100.00;52354.34;5066537;28;19917;-66
2022/07/26 00:12:18;;;;;;;;;;;;;;;-140.72;100.00;52346.22;5060320;28;20006;-66
2022/07/26 00:14:43;;;;;;;;;;;;;;;-140.72;100.00;52342.16;5073346;28;19970;-67
2022/07/26 00:17:09;;;;;;;;;;;;;;;-140.72;100.00;52380.72;5048739;28;19917;-67
2022/07/26 00:19:34;;;;;;;;;;;;;;;-140.72;100.00;52372.59;5034047;28;19921;-67
2022/07/26 00:22:59;;;;;;;;;;;;;;;-140.72;100.00;52362.44;5053985;28;19916;-66
2022/07/26 00:24:53;;;;;;;;;;;;;;;-140.72;100.00;52321.88;5037081;28;19988;-66
2022/07/26 00:27:18;;;;;;;;;;;;;;;-140.72;100.00;52340.13;5052027;28;19968;-67
2022/07/26 00:29:44;;;;;;;;;;;;;;;-140.72;100.00;52386.81;5054077;28;20007;-66
2022/07/26 00:32:09;;;;;;;;;;;;;;;-140.72;100.00;52366.50;5033300;28;19917;-66
2022/07/26 00:34:34;;;;;;;;;;;;;;;-140.72;100.00;52366.50;5051635;28;20065;-66
2022/07/26 00:37:00;;;;;;;;;;;;;;;-140.72;100.00;52366.50;5063570;28;19920;-66
2022/07/26 00:39:25;;;;;;;;;;;;;;;-140.72;100.00;52350.28;5053099;28;20330;-66
2022/07/26 00:41:50;;;;;;;;;;;;;;;-140.72;100.00;52348.25;5034715;28;19967;-67
2022/07/26 00:44:16;;;;;;;;;;;;;;;-140.72;100.00;52354.34;5041168;28;19925;-67
2022/07/26 00:46:42;;;;;;;;;;;;;;;-140.72;100.00;52362.44;5048394;28;19944;-67
2022/07/26 00:49:11;;;;;;;;;;;;;;;-140.72;100.00;52352.31;5051402;28;19962;-66
2022/07/26 00:51:36;;;;;;;;;;;;;;;-140.72;100.00;52334.03;5036266;28;19917;-66
2022/07/26 00:54:02;;;;;;;;;;;;;;;-140.72;100.00;52368.53;5033782;28;19963;-67
2022/07/26 00:56:28;;;;;;;;;;;;;;;-140.72;100.00;52407.09;5034993;28;19917;-66
2022/07/26 00:58:53;;;;;;;;;;;;;;;-140.72;100.00;52378.69;5061747;28;19921;-66
2022/07/26 01:01:18;;;;;;;;;;;;;;;-140.72;100.00;52350.28;5066524;28;19932;-66
2022/07/26 01:03:43;;;;;;;;;;;;;;;-140.72;100.00;52392.88;5065665;28;20303;-67
2022/07/26 01:06:09;;;;;;;;;;;;;;;-140.72;100.00;52358.41;5067680;28;20330;-66
2022/07/26 01:08:34;;;;;;;;;;;;;;;-140.72;100.00;52380.72;5061366;28;19974;-67
2022/07/26 01:10:59;;;;;;;;;;;;;;;-140.72;100.00;52374.63;5058335;28;19917;-66
2022/07/26 01:13:24;;;;;;;;;;;;;;;-140.72;100.00;52401.00;5053041;28;19924;-66
2022/07/26 01:15:50;;;;;;;;;;;;;;;-140.72;100.00;52366.50;5039893;28;20415;-66
2022/07/26 01:18:15;;;;;;;;;;;;;;;-140.72;100.00;52378.69;5053304;28;19917;-66
2022/07/26 01:20:40;;;;;;;;;;;;;;;-140.72;100.00;52362.44;5065817;28;20006;-67
2022/07/26 01:23:06;;;;;;;;;;;;;;;-140.72;100.00;52374.63;5040126;28;19918;-66
2022/07/26 01:25:32;;;;;;;;;;;;;;;-140.72;100.00;52368.53;5066219;28;20429;-67
2022/07/26 01:28:13;;;;;;;;;;;;;;;-140.72;100.00;52390.84;5052496;28;20010;-66
2022/07/26 01:30:39;;;;;;;;;;;;;;;-140.72;100.00;52419.28;5057059;28;19924;-66
2022/07/26 01:33:04;;;;;;;;;;;;;;;-140.72;100.00;52392.88;5053016;28;19916;-66
2022/07/26 01:35:29;;;;;;;;;;;;;;;-140.72;100.00;52362.44;5053373;28;20385;-66
2022/07/26 01:37:54;;;;;;;;;;;;;;;-140.72;100.00;52415.22;5039841;28;19921;-66
2022/07/26 01:40:20;;;;;;;;;;;;;;;-140.72;100.00;52407.09;5065145;28;19924;-66
2022/07/26 01:42:45;;;;;;;;;;;;;;;-140.72;100.00;52382.75;5066282;28;19924;-66
2022/07/26 01:45:11;;;;;;;;;;;;;;;-140.72;100.00;52411.16;5055238;28;19923;-66
2022/07/26 01:47:36;;;;;;;;;;;;;;;-140.72;100.00;52427.38;5056498;28;20007;-66
2022/07/26 01:50:02;;;;;;;;;;;;;;;-140.72;100.00;52392.88;5069486;28;19952;-66
2022/07/26 01:52:34;;;;;;;;;;;;;;;-140.72;100.00;52382.75;5060160;28;20007;-66
2022/07/26 01:55:00;;;;;;;;;;;;;;;-140.72;100.00;52417.25;5043094;28;19925;-66
2022/07/26 01:57:25;;;;;;;;;;;;;;;-140.72;100.00;52411.16;5052045;28;19917;-67
2022/07/26 02:02:53;;;;;;;;;;;;;;;-140.72;100.00;52421.28;5054799;28;20004;-67
2022/07/26 02:05:18;;;;;;;;;;;;;;;-140.72;100.00;52405.06;5069162;28;19944;-66
2022/07/26 02:07:43;;;;;;;;;;;;;;;-140.72;100.00;52419.28;5056236;28;19924;-66
2022/07/26 02:10:09;;;;;;;;;;;;;;;-140.72;100.00;52411.16;5051378;28;19917;-66
2022/07/26 02:12:35;;;;;;;;;;;;;;;-140.72;100.00;52425.34;5056172;28;19917;-66
2022/07/26 02:15:00;;;;;;;;;;;;;;;-140.72;100.00;52398.97;5056146;28;20020;-66
2022/07/26 02:17:25;;;;;;;;;;;;;;;-140.72;100.00;52390.84;5060938;28;19917;-65
2022/07/26 02:19:51;;;;;;;;;;;;;;;-140.72;100.00;52439.56;5052085;28;20012;-66
2022/07/26 02:22:17;;;;;;;;;;;;;;;-140.72;100.00;52431.44;5048022;28;19924;-67
2022/07/26 02:24:42;;;;;;;;;;;;;;;-140.72;100.00;52451.72;5042387;28;19918;-65
2022/07/26 02:27:08;;;;;;;;;;;;;;;-140.72;100.00;52425.34;5053062;28;19917;-66
2022/07/26 02:29:34;;;;;;;;;;;;;;;-140.72;100.00;52419.28;5056247;28;19959;-67
2022/07/26 02:31:59;;;;;;;;;;;;;;;-140.72;100.00;52480.16;5068242;28;19917;-66
2022/07/26 02:37:06;;;;;;;;;;;;;;;-140.72;100.00;52421.28;5006488;28;19936;-67
2022/07/26 02:39:32;;;;;;;;;;;;;;;-140.72;100.00;52411.16;5006619;28;20004;-66
2022/07/26 02:41:58;;;;;;;;;;;;;;;-140.72;100.00;52382.75;5017103;28;19993;-66
2022/07/26 02:44:24;;;;;;;;;;;;;;;-140.72;100.00;52407.09;5018225;28;19925;-66
2022/07/26 02:46:51;;;;;;;;;;;;;;;-140.72;100.00;52384.78;5016841;28;19917;-67
2022/07/26 02:49:17;;;;;;;;;;;;;;;-140.72;100.00;52421.28;5014589;28;20008;-66
2022/07/26 02:51:43;;;;;;;;;;;;;;;-140.72;100.00;52439.56;5011298;28;19975;-66
2022/07/26 02:54:08;;;;;;;;;;;;;;;-140.72;100.00;52433.47;5017307;28;19917;-66
2022/07/26 02:56:33;;;;;;;;;;;;;;;-140.72;100.00;52413.19;5015496;28;19924;-65
2022/07/26 02:58:58;;;;;;;;;;;;;;;-140.72;100.00;52431.44;5014057;28;20020;-65
2022/07/26 03:01:23;;;;;;;;;;;;;;;-140.72;100.00;52423.31;5006389;28;20396;-65
2022/07/26 03:03:49;;;;;;;;;;;;;;;-140.72;100.00;52386.81;5016555;28;20004;-65
2022/07/26 03:06:14;;;;;;;;;;;;;;;-140.72;100.00;52437.53;5016747;28;19930;-66
2022/07/26 03:08:39;;;;;;;;;;;;;;;-140.72;100.00;52449.72;4999470;28;19917;-66
2022/07/26 03:11:05;;;;;;;;;;;;;;;-140.72;100.00;52417.25;5017929;28;19922;-65
2022/07/26 03:13:30;;;;;;;;;;;;;;;-140.72;100.00;52396.94;5017065;28;19947;-67
2022/07/26 03:15:56;;;;;;;;;;;;;;;-140.72;100.00;52382.75;4999281;28;20016;-66
2022/07/26 03:18:21;;;;;;;;;;;;;;;-140.72;100.00;52405.06;4986030;28;19954;-65
2022/07/26 03:20:47;;;;;;;;;;;;;;;-140.72;100.00;52384.78;5016862;28;19981;-66
2022/07/26 03:23:12;;;;;;;;;;;;;;;-140.72;100.00;52437.53;5016727;28;19928;-66
2022/07/26 03:25:37;;;;;;;;;;;;;;;-140.72;100.00;52398.97;5017206;28;20392;-65
2022/07/26 03:28:02;;;;;;;;;;;;;;;-140.72;100.00;52411.16;5016890;28;19917;-65
2022/07/26 03:30:28;;;;;;;;;;;;;;;-140.72;100.00;52437.53;4999223;28;19917;-66
2022/07/26 03:32:53;;;;;;;;;;;;;;;-140.72;100.00;52411.16;5003860;28;19944;-66
2022/07/26 03:35:18;;;;;;;;;;;;;;;-140.72;100.00;52433.47;5004408;28;19937;-66
2022/07/26 03:37:43;;;;;;;;;;;;;;;-140.72;100.00;52488.25;4996066;28;19925;-65
2022/07/26 03:40:09;;;;;;;;;;;;;;;-140.72;100.00;52417.25;4996062;28;19921;-66
2022/07/26 03:42:34;;;;;;;;;;;;;;;-140.72;100.00;52459.84;4996511;28;20056;-66
2022/07/26 03:45:00;;;;;;;;;;;;;;;-140.72;100.00;52398.97;4997129;28;19925;-66
2022/07/26 03:47:25;;;;;;;;;;;;;;;-140.72;100.00;52435.50;4979185;28;19918;-65
2022/07/26 03:49:51;;;;;;;;;;;;;;;-140.72;100.00;52425.34;4996236;28;20392;-66
2022/07/26 03:52:16;;;;;;;;;;;;;;;-140.72;100.00;52455.78;4996430;28;20012;-66
2022/07/26 03:54:41;;;;;;;;;;;;;;;-140.72;100.00;52413.19;4995895;28;19961;-65
2022/07/26 03:57:06;;;;;;;;;;;;;;;-140.72;100.00;52425.34;4995827;28;19944;-65
2022/07/26 03:59:32;;;;;;;;;;;;;;;-140.72;100.00;52472.03;4996120;28;19917;-66
2022/07/26 04:01:57;;;;;;;;;;;;;;;-140.72;100.00;52435.50;4997096;28;20211;-65
2022/07/26 04:04:22;;;;;;;;;;;;;;;-140.72;100.00;52472.03;4989358;28;19925;-65
2022/07/26 04:06:47;;;;;;;;;;;;;;;-140.72;100.00;52439.56;5003841;28;19918;-66
2022/07/26 04:09:13;;;;;;;;;;;;;;;-140.72;100.00;52457.81;4996627;28;19925;-66
2022/07/26 04:11:39;;;;;;;;;;;;;;;-140.72;100.00;52421.28;4978993;28;19917;-67
2022/07/26 04:14:04;;;;;;;;;;;;;;;-140.72;100.00;52421.28;4982782;28;19918;-66
2022/07/26 04:16:29;;;;;;;;;;;;;;;-140.72;100.00;52449.72;4996462;28;19960;-66
2022/07/26 04:18:55;;;;;;;;;;;;;;;-140.72;100.00;52445.66;4993006;28;19940;-66
2022/07/26 04:21:20;;;;;;;;;;;;;;;-140.72;100.00;52449.72;4990433;28;19933;-67
2022/07/26 04:23:46;;;;;;;;;;;;;;;-140.72;100.00;52459.84;4981046;28;19968;-64
2022/07/26 04:26:13;;;;;;;;;;;;;;;-140.72;100.00;52437.53;4966401;28;19928;-64
2022/07/26 04:28:38;;;;;;;;;;;;;;;-140.72;100.00;52461.88;4997533;28;19928;-66
2022/07/26 04:31:03;;;;;;;;;;;;;;;-140.72;100.00;52451.72;4996250;28;19973;-65
2022/07/26 04:33:28;;;;;;;;;;;;;;;-140.72;100.00;52463.91;4984814;28;19941;-64
2022/07/26 04:35:54;;;;;;;;;;;;;;;-140.72;100.00;52439.56;4996138;28;19922;-65
2022/07/26 04:38:19;;;;;;;;;;;;;;;-140.72;100.00;52457.81;4985069;28;19918;-65
2022/07/26 04:40:44;;;;;;;;;;;;;;;-140.72;100.00;52423.31;5008510;28;20016;-66
2022/07/26 04:43:10;;;;;;;;;;;;;;;-140.72;100.00;52449.72;4989878;28;19922;-66
2022/07/26 04:45:36;;;;;;;;;;;;;;;-140.72;100.00;52465.94;4989302;28;19918;-64
2022/07/26 04:48:01;;;;;;;;;;;;;;;-140.72;100.00;52478.13;4992610;28;20349;-66
2022/07/26 04:50:27;;;;;;;;;;;;;;;-140.72;100.00;52435.50;4985754;28;19918;-66
2022/07/26 04:52:52;;;;;;;;;;;;;;;-140.72;100.00;52411.16;4997272;28;19918;-65
2022/07/26 04:55:17;;;;;;;;;;;;;;;-140.72;100.00;52453.75;4996490;28;20365;-66
2022/07/26 04:57:43;;;;;;;;;;;;;;;-140.72;100.00;52447.69;5003862;28;19968;-65
2022/07/26 05:00:10;;;;;;;;;;;;;;;-140.72;100.00;52435.50;4984311;28;19953;-66
2022/07/26 05:02:35;;;;;;;;;;;;;;;-140.72;100.00;52413.19;4993227;28;19965;-66
2022/07/26 05:05:01;;;;;;;;;;;;;;;-140.72;100.00;52437.53;4995797;28;19934;-65
2022/07/26 05:07:26;;;;;;;;;;;;;;;-140.72;100.00;52455.78;5009861;28;19925;-66
2022/07/26 05:09:51;;;;;;;;;;;;;;;-140.72;100.00;52409.13;4996948;28;19918;-65
2022/07/26 05:12:16;;;;;;;;;;;;;;;-140.72;100.00;52435.50;4997018;28;20005;-65
2022/07/26 05:14:43;;;;;;;;;;;;;;;-140.72;100.00;52423.31;4996849;28;19936;-67
2022/07/26 05:17:08;;;;;;;;;;;;;;;-140.72;100.00;52427.38;5001593;28;20368;-66
2022/07/26 05:19:33;;;;;;;;;;;;;;;-140.72;100.00;52439.56;5005442;28;19917;-65
2022/07/26 05:21:59;;;;;;;;;;;;;;;-140.72;100.00;52463.91;5003968;28;20266;-67
2022/07/26 05:24:24;;;;;;;;;;;;;;;-140.72;100.00;52455.78;4991098;28;20341;-66
2022/07/26 05:26:49;;;;;;;;;;;;;;;-140.72;100.00;52445.66;4995007;28;19921;-66
2022/07/26 05:29:14;;;;;;;;;;;;;;;-140.72;100.00;52457.81;4996737;28;19949;-67
2022/07/26 05:31:39;;;;;;;;;;;;;;;-140.72;100.00;52467.97;4976531;28;19922;-66
2022/07/26 05:34:05;;;;;;;;;;;;;;;-140.72;100.00;52457.81;4988651;28;19922;-66
2022/07/26 05:36:30;;;;;;;;;;;;;;;-140.72;100.00;52443.63;4996724;28;19932;-66
2022/07/26 05:38:55;;;;;;;;;;;;;;;-140.72;100.00;52470.00;4994407;28;20029;-65
2022/07/26 05:41:20;;;;;;;;;;;;;;;-140.72;100.00;52431.44;4997883;28;20008;-66
2022/07/26 05:43:46;;;;;;;;;;;;;;;-140.72;100.00;52459.84;4996845;28;20266;-66
2022/07/26 05:46:11;;;;;;;;;;;;;;;-140.72;100.00;52437.53;4996257;28;19921;-66
2022/07/26 05:48:36;;;;;;;;;;;;;;;-140.72;100.00;52447.69;5005310;28;19924;-66
2022/07/26 05:51:02;;;;;;;;;;;;;;;-140.72;100.00;52425.34;4997874;28;20411;-65
2022/07/26 05:53:27;;;;;;;;;;;;;;;-140.72;100.00;52476.09;4994994;28;19926;-66
2022/07/26 05:55:52;;;;;;;;;;;;;;;-140.72;100.00;52478.13;4977060;28;20092;-66
2022/07/26 05:58:17;;;;;;;;;;;;;;;-140.72;100.00;52447.69;4984373;28;20336;-67
2022/07/26 06:00:43;;;;;;;;;;;;;;;-140.72;100.00;52433.47;4995812;28;19918;-66
2022/07/26 06:03:23;;;;;;;;;;;;;;;-140.72;100.00;52429.41;4996649;28;19918;-67
2022/07/26 06:05:50;;;;;;;;;;;;;;;-140.72;100.00;52437.53;4984517;28;20254;-66
2022/07/26 06:08:15;;;;;;;;;;;;;;;-140.72;100.00;52465.94;4997101;28;20438;-66
2022/07/26 06:10:41;;;;;;;;;;;;;;;-140.72;100.00;52445.66;4978977;28;19965;-67
2022/07/26 06:13:06;;;;;;;;;;;;;;;-140.72;100.00;52433.47;4996424;28;20006;-67
2022/07/26 06:15:31;;;;;;;;;;;;;;;-140.72;100.00;52455.78;4995391;28;19918;-66
2022/07/26 06:17:57;;;;;;;;;;;;;;;-140.72;100.00;52409.13;4985089;28;19973;-65
2022/07/26 06:20:22;;;;;;;;;;;;;;;-140.72;100.00;52411.16;4977409;28;19974;-65
2022/07/26 06:22:47;;;;;;;;;;;;;;;-140.72;100.00;52433.47;4988389;28;19918;-65
2022/07/26 06:25:12;;;;;;;;;;;;;;;-140.72;100.00;52467.97;4991159;28;19919;-65
2022/07/26 06:27:37;;;;;;;;;;;;;;;-140.72;100.00;52451.72;4987718;28;20008;-65
2022/07/26 06:30:03;;;;;;;;;;;;;;;-140.72;100.00;52427.38;4994296;28;19918;-66
2022/07/26 06:32:29;;;;;;;;;;;;;;;-140.72;100.00;52476.09;4995835;28;20084;-65
2022/07/26 06:34:54;;;;;;;;;;;;;;;-140.72;100.00;52455.78;4996247;28;19968;-66
2022/07/26 06:37:19;;;;;;;;;;;;;;;-140.72;100.00;52467.97;4995882;28;20111;-66
2022/07/26 06:39:45;;;;;;;;;;;;;;;-140.72;100.00;52478.13;4979360;28;19926;-65
2022/07/26 06:42:10;;;;;;;;;;;;;;;-140.72;100.00;52423.31;4995757;28;19921;-66
2022/07/26 06:44:35;;;;;;;;;;;;;;;-140.72;100.00;52429.41;4995642;28;19937;-65
2022/07/26 06:47:00;;;;;;;;;;;;;;;-140.72;100.00;52443.63;4974596;28;19919;-66
2022/07/26 06:49:25;;;;;;;;;;;;;;;-140.72;100.00;52455.78;4989228;28;20009;-65
2022/07/26 06:51:51;;;;;;;;;;;;;;;-140.72;100.00;52431.44;4976593;28;20032;-65
2022/07/26 06:54:16;;;;;;;;;;;;;;;-140.72;100.00;52409.13;4988890;28;19950;-66
2022/07/26 06:56:41;;;;;;;;;;;;;;;-140.72;100.00;52463.91;4968393;28;19917;-66
2022/07/26 06:59:07;;;;;;;;;;;;;;;-140.72;100.00;52405.06;4990192;28;20373;-66
2022/07/26 07:01:32;;;;;;;;;;;;;;;-140.72;100.00;52437.53;4988860;28;19968;-65
2022/07/26 07:03:57;;;;;;;;;;;;;;;-140.72;100.00;52433.47;4995394;28;19926;-66
2022/07/26 07:06:22;;;;;;;;;;;;;;;-140.72;100.00;52431.44;4995919;28;19918;-66
2022/07/26 07:08:48;;;;;;;;;;;;;;;-140.72;100.00;52421.28;4997224;28;19925;-66
2022/07/26 07:11:13;;;;;;;;;;;;;;;-140.72;100.00;52427.38;4998273;28;20049;-67
2022/07/26 07:13:38;;;;;;;;;;;;;;;-140.72;100.00;52411.16;4998798;28;19956;-68
2022/07/26 07:16:04;;;;;;;;;;;;;;;-140.72;100.00;52407.09;5003165;28;20362;-67
2022/07/26 07:18:29;;;;;;;;;;;;;;;-140.72;100.00;52419.28;4980369;28;19977;-68
2022/07/26 07:20:54;;;;;;;;;;;;;;;-140.72;100.00;52415.22;4999851;28;19925;-68
2022/07/26 07:23:21;;;;;;;;;;;;;;;-140.72;100.00;52396.94;4988899;28;19922;-69
2022/07/26 07:25:47;;;;;;;;;;;;;;;-140.72;100.00;52382.75;4997169;28;20012;-67
2022/07/26 07:28:15;;;;;;;;;;;;;;;-140.72;100.00;52427.38;4995962;28;19960;-68
2022/07/26 07:30:46;;;;;;;;;;;;;;;-140.72;100.00;52378.69;4985647;28;19922;-67
2022/07/26 07:33:16;;;;;;;;;;;;;;;-140.72;100.00;52427.38;4998127;28;19961;-67
2022/07/26 07:35:42;;;;;;;;;;;;;;;-140.72;100.00;52403.03;4996741;28;19921;-67
2022/07/26 07:38:07;;;;;;;;;;;;;;;-140.72;100.00;52421.28;4998353;28;19918;-67
2022/07/26 07:40:32;;;;;;;;;;;;;;;-140.72;100.00;52413.19;4992179;28;19919;-68
2022/07/26 07:42:57;;;;;;;;;;;;;;;-140.72;100.00;52407.09;4991324;28;19929;-68
2022/07/26 07:45:23;;;;;;;;;;;;;;;-140.72;100.00;52417.25;4998244;28;20024;-67
2022/07/26 07:47:48;;;;;;;;;;;;;;;-140.72;100.00;52403.03;4991818;28;20161;-68
2022/07/26 07:50:13;;;;;;;;;;;;;;;-140.72;100.00;52419.28;4998405;28;19917;-67
2022/07/26 07:52:38;;;;;;;;;;;;;;;-140.72;100.00;52370.56;4989617;28;19964;-68
2022/07/26 07:55:04;;;;;;;;;;;;;;;-140.72;100.00;52443.63;4998514;28;20293;-67
2022/07/26 07:57:29;;;;;;;;;;;;;;;-140.72;100.00;52390.84;4994207;28;19957;-67
2022/07/26 07:59:54;;;;;;;;;;;;;;;-140.72;100.00;52423.31;4999900;28;19964;-67
2022/07/26 08:02:20;;;;;;;;;;;;;;;-140.72;100.00;52459.84;4986571;28;19930;-67
2022/07/26 08:04:45;;;;;;;;;;;;;;;-140.72;100.00;52386.81;4999698;28;20262;-67
2022/07/26 08:07:10;;;;;;;;;;;;;;;-140.72;100.00;52398.97;5000592;28;19937;-67
2022/07/26 08:09:35;;;;;;;;;;;;;;;-140.72;100.00;52429.41;5001217;28;19929;-67
2022/07/26 08:12:01;;;;;;;;;;;;;;;-140.72;100.00;52425.34;4990290;28;19928;-66
2022/07/26 08:14:26;;;;;;;;;;;;;;;-140.72;100.00;52417.25;5002324;28;19969;-66
2022/07/26 08:16:51;;;;;;;;;;;;;;;-140.72;100.00;52411.16;5008071;28;19953;-66
2022/07/26 08:19:16;;;;;;;;;;;;;;;-140.72;100.00;52384.78;4983941;28;19953;-66
2022/07/26 08:21:44;;;;;;;;;;;;;;;-140.72;100.00;52390.84;4998776;28;19945;-67
2022/07/26 08:24:10;;;;;;;;;;;;;;;-140.72;100.00;52344.19;5000267;28;19918;-67
2022/07/26 08:26:35;;;;;;;;;;;;;;;-140.72;100.00;52323.91;4998902;28;19925;-66
2022/07/26 08:29:01;;;;;;;;;;;;;;;-140.72;100.00;52279.25;4994578;28;19918;-66
2022/07/26 08:31:26;;;;;;;;;;;;;;;-140.72;100.00;52301.59;4996548;28;19918;-67
2022/07/26 08:33:52;;;;;;;;;;;;;;;-140.72;100.00;52238.69;4979058;28;19967;-67
2022/07/26 08:36:17;;;;;;;;;;;;;;;-140.72;100.00;52273.19;4996771;28;19922;-66
2022/07/26 08:38:43;;;;;;;;;;;;;;;-140.72;100.00;52315.78;4999494;28;20005;-67
2022/07/26 08:41:08;;;;;;;;;;;;;;;-140.72;100.00;52299.56;5000015;28;20353;-67
2022/07/26 08:43:34;;;;;;;;;;;;;;;-140.72;100.00;52356.38;4999708;28;19965;-67
2022/07/26 08:46:01;;;;;;;;;;;;;;;-140.72;100.00;52382.75;5000236;28;19918;-66
2022/07/26 08:48:26;;;;;;;;;;;;;;;-140.72;100.00;52372.59;4991862;28;19925;-66
2022/07/26 08:50:53;;;;;;;;;;;;;;;-140.72;100.00;52366.50;4981501;28;19921;-68
2022/07/26 08:53:19;;;;;;;;;;;;;;;-140.72;100.00;52309.69;4982612;28;19918;-66
2022/07/26 08:55:44;;;;;;;;;;;;;;;-140.72;100.00;52305.63;5003315;28;19928;-69
2022/07/26 08:58:09;;;;;;;;;;;;;;;-140.72;100.00;52287.38;4997507;28;20431;-71
2022/07/26 09:00:36;;;;;;;;;;;;;;;-140.72;100.00;52265.06;5010474;28;19948;-71
2022/07/26 09:03:02;;;;;;;;;;;;;;;-140.72;100.00;52281.28;5008087;28;19922;-72
2022/07/26 09:05:29;;;;;;;;;;;;;;;-140.72;100.00;52269.13;4991702;28;19961;-71
2022/07/26 09:07:55;;;;;;;;;;;;;;;-140.72;100.00;52307.66;4996397;28;19929;-71
2022/07/26 09:10:20;;;;;;;;;;;;;;;-140.72;100.00;52283.31;4994665;28;19921;-71
2022/07/26 09:12:51;;;;;;;;;;;;;;;-140.72;100.00;52309.69;4987718;28;19925;-71
2022/07/26 09:15:17;;;;;;;;;;;;;;;-140.72;100.00;52336.06;5002369;28;19956;-72
2022/07/26 09:17:45;;;;;;;;;;;;;;;-140.72;100.00;52311.72;4985882;28;20345;-71
2022/07/26 09:20:12;;;;;;;;;;;;;;;-140.72;100.00;52364.47;4978307;28;20449;-71
2022/07/26 09:22:53;;;;;;;;;;;;;;;-140.72;100.00;52370.56;5005888;28;19917;-70
2022/07/26 09:25:20;;;;;;;;;;;;;;;-140.72;100.00;52407.09;4974265;28;19937;-71
2022/07/26 09:27:45;;;;;;;;;;;;;;;-140.72;100.00;52352.31;4988677;28;20381;-70
2022/07/26 09:30:11;;;;;;;;;;;;;;;-140.72;100.00;52378.69;4994829;28;20000;-71
2022/07/26 09:32:36;;;;;;;;;;;;;;;-140.72;100.00;52394.91;4984230;28;20000;-71
2022/07/26 09:35:15;;;;;;;;;;;;;;;-140.72;100.00;52366.50;4975985;28;21669;-71
2022/07/26 09:37:45;;;;;;;;;;;;;;;-140.72;100.00;52415.22;4989649;28;19940;-71
2022/07/26 09:40:12;;;;;;;;;;;;;;;-140.72;100.00;52378.69;4977752;28;19922;-71
2022/07/26 09:42:37;;;;;;;;;;;;;;;-140.72;100.00;52323.91;4995334;28;20000;-72
2022/07/26 09:45:13;;;;;;;;;;;;;;;-140.72;100.00;52364.47;4996165;28;19960;-72
2022/07/26 09:47:39;;;;;;;;;;;;;;;-140.72;100.00;52362.44;4983232;28;19946;-71
2022/07/26 09:50:12;;;;;;;;;;;;;;;-140.72;100.00;52281.28;4987980;28;19960;-72
2022/07/26 09:52:37;;;;;;;;;;;;;;;-140.72;100.00;52338.09;4988689;28;19918;-72
2022/07/26 09:55:04;;;;;;;;;;;;;;;-140.72;100.00;52325.94;4978748;28;20004;-73
2022/07/26 09:57:29;;;;;;;;;;;;;;;-140.72;100.00;52293.47;4969690;28;19982;-72
2022/07/26 09:59:55;;;;;;;;;;;;;;;-140.72;100.00;52334.03;4981706;28;20001;-73
2022/07/26 10:02:20;;;;;;;;;;;;;;;-140.72;100.00;52277.22;4998373;28;19937;-74
2022/07/26 10:04:45;;;;;;;;;;;;;;;-140.72;100.00;52336.06;5005997;28;19918;-72
2022/07/26 10:07:11;;;;;;;;;;;;;;;-140.72;100.00;52338.09;4977554;28;19933;-72
2022/07/26 10:09:45;;;;;;;;;;;;;;;-140.72;100.00;52313.75;4992553;28;19944;-72
2022/07/26 10:12:20;;;;;;;;;;;;;;;-140.72;100.00;52289.41;4983209;28;19937;-72
2022/07/26 10:17:48;;;;;;;;;;;;;;;-140.72;100.00;52338.09;4984644;28;19925;-71
2022/07/26 10:20:33;;;;;;;;;;;;;;;-140.72;100.00;52289.41;5001289;28;20289;-71
2022/07/26 10:22:58;;;;;;;;;;;;;;;-140.72;100.00;52305.63;4979142;28;20012;-72
2022/07/26 10:25:23;;;;;;;;;;;;;;;-140.72;100.00;52271.16;4991402;28;19965;-72
2022/07/26 10:27:56;;;;;;;;;;;;;;;-140.72;100.00;52265.06;4991019;28;20018;-72
2022/07/26 10:30:22;;;;;;;;;;;;;;;-140.72;100.00;52236.66;4981684;28;19918;-70
2022/07/26 10:32:51;;;;;;;;;;;;;;;-140.72;100.00;52248.81;4994796;28;20132;-75
2022/07/26 10:35:39;;;;;;;;;;;;;;;-140.72;100.00;52236.66;4972072;28;19922;-74
2022/07/26 10:38:06;;;;;;;;;;;;;;;-140.72;100.00;52261.00;4967625;28;19922;-74
2022/07/26 10:40:32;;;;;;;;;;;;;;;-140.72;100.00;52273.19;4995869;28;19979;-74
2022/07/26 10:43:07;;;;;;;;;;;;;;;-140.72;100.00;52236.66;4996005;28;20363;-74
2022/07/26 10:45:32;;;;;;;;;;;;;;;-140.72;100.00;52252.88;4985448;28;19918;-75
2022/07/26 10:48:24;;;;;;;;;;;;;;;-140.72;100.00;52269.13;4976688;28;19917;-73
2022/07/26 10:50:50;;;;;;;;;;;;;;;-140.72;100.00;52151.44;4986225;28;19930;-72
2022/07/26 10:53:23;;;;;;;;;;;;;;;-140.72;100.00;52165.63;4993006;28;19962;-72
2022/07/26 10:55:51;;;;;;;;;;;;;;;-140.72;100.00;52157.53;4973797;28;19926;-72
2022/07/26 10:58:17;;;;;;;;;;;;;;;-140.72;100.00;52212.31;4991220;28;19986;-73
2022/07/26 11:00:57;;;;;;;;;;;;;;;-140.72;100.00;52175.78;4994203;28;20017;-73
2022/07/26 11:03:22;;;;;;;;;;;;;;;-140.72;100.00;52189.97;4991399;28;19925;-71
2022/07/26 11:05:48;;;;;;;;;;;;;;;-140.72;100.00;52228.53;4989019;28;19953;-71
2022/07/26 11:08:13;;;;;;;;;;;;;;;-140.72;100.00;52183.91;4999841;28;19980;-71
2022/07/26 11:10:46;;;;;;;;;;;;;;;-140.72;100.00;52110.84;4971410;28;20370;-72
2022/07/26 11:13:11;;;;;;;;;;;;;;;-140.72;100.00;52171.72;4988397;28;20281;-72
2022/07/26 11:15:38;;;;;;;;;;;;;;;-140.72;100.00;52151.44;4993255;28;20016;-72
2022/07/26 11:18:06;;;;;;;;;;;;;;;-140.72;100.00;52157.53;4987820;28;19921;-72
2022/07/26 11:20:31;;;;;;;;;;;;;;;-140.72;100.00;52155.50;4994621;28;19922;-72
2022/07/26 11:22:56;;;;;;;;;;;;;;;-140.72;100.00;52183.91;4976969;28;20301;-72
2022/07/26 11:25:22;;;;;;;;;;;;;;;-140.72;100.00;52068.25;4981361;28;19925;-72
2022/07/26 11:27:59;;;;;;;;;;;;;;;-140.72;100.00;52110.84;5000571;28;20365;-72
2022/07/26 11:30:25;;;;;;;;;;;;;;;-140.72;100.00;52096.66;5000057;28;19917;-71
2022/07/26 11:32:51;;;;;;;;;;;;;;;-140.72;100.00;52135.19;4988244;28;19933;-73
2022/07/26 11:35:16;;;;;;;;;;;;;;;-140.72;100.00;52129.13;4982463;28;19930;-72
2022/07/26 11:37:50;;;;;;;;;;;;;;;-140.72;100.00;52135.19;4963985;28;20293;-73
2022/07/26 11:40:16;;;;;;;;;;;;;;;-140.72;100.00;52167.66;4992807;28;20241;-73
2022/07/26 11:42:41;;;;;;;;;;;;;;;-140.72;100.00;52194.03;4979715;28;19918;-72
2022/07/26 11:45:08;;;;;;;;;;;;;;;-140.72;100.00;52155.50;4994375;28;19968;-72
2022/07/26 11:47:33;;;;;;;;;;;;;;;-140.72;100.00;52252.88;4992284;28;19918;-72
2022/07/26 11:50:04;;;;;;;;;;;;;;;-140.72;100.00;52246.78;4975870;28;19918;-72
2022/07/26 11:52:30;;;;;;;;;;;;;;;-140.72;100.00;52238.69;4992992;28;19953;-72
2022/07/26 11:54:55;;;;;;;;;;;;;;;-140.72;100.00;52232.59;4992659;28;19929;-72
2022/07/26 11:57:21;;;;;;;;;;;;;;;-140.72;100.00;52258.97;4975578;28;19917;-71
2022/07/26 11:59:47;;;;;;;;;;;;;;;-140.72;100.00;52171.72;4993511;28;20369;-73
2022/07/26 12:02:12;;;;;;;;;;;;;;;-140.72;100.00;52114.91;4992945;28;19918;-73
2022/07/26 12:04:39;;;;;;;;;;;;;;;-140.72;100.00;52151.44;4992346;28;19988;-72
2022/07/26 12:07:09;;;;;;;;;;;;;;;-140.72;100.00;52118.97;4992524;28;19918;-71
2022/07/26 12:09:38;;;;;;;;;;;;;;;-140.72;100.00;52139.25;4994588;28;20079;-72
2022/07/26 12:12:05;;;;;;;;;;;;;;;-140.72;100.00;52183.91;5001524;28;19957;-71
2022/07/26 12:14:33;;;;;;;;;;;;;;;-140.72;100.00;52198.09;4977597;28;19922;-71
2022/07/26 12:17:09;;;;;;;;;;;;;;;-140.72;100.00;52216.34;4982752;28;19926;-73
2022/07/26 12:19:34;;;;;;;;;;;;;;;-140.72;100.00;52228.53;4992545;28;20439;-73
2022/07/26 12:22:08;;;;;;;;;;;;;;;-140.72;100.00;52189.97;4986815;28;19965;-72